• Join FlightAware (Why Join?)
  • Login
  • US Flag 
08:19AM EDT


 

Airport Tracker/Info


-or-


 

Live Flight TrackerFlight Track Log ✈ EJA839 ✈ 24-Apr-2013 ✈ KPVD - KIAD

Flight Track Log - Related Links

Times and Time Zones

All times are in EDT time to prevent confusion due to time zone crossing. See the EJA839 flight status page for this flight to view local times or setup timezone preferences in your user account.

Time Position Orientation Groundspeed Altitude Reporting Facility
EDT Latitude Longitude Course Direction KTS MPH feet Rate Location/Type
09:58AM 41.7500 -71.4633 310° West 186 214 2,300  Level Boston Center
09:59AM 41.7797 -71.5103 310° West 189 217 4,100 2,340 Climbing Boston Center
10:00AM 41.8236 -71.5458 329° Northwest 269 310 6,300 3,120 Climbing Boston Center
10:01AM 41.8719 -71.5703 339° North 219 252 9,800 2,700 Climbing Boston Center
10:02AM 41.8975 -71.6592 291° West 216 249 11,800 2,040 Climbing Boston Center
10:03AM 41.9317 -71.7647 294° West 259 298 13,900 2,460 Climbing Boston Center
10:05AM 41.9889 -71.9847 289° West 313 360 19,300 2,820 Climbing Boston Center
10:06AM 42.0144 -72.0908 288° West 313 360 22,400 3,060 Climbing Boston Center
10:07AM 42.0208 -72.1969 275° West 300 345 25,500 2,100 Climbing Boston Center
10:08AM 42.0147 -72.2836 265° West 293 337 26,700 1,200 Climbing Boston Center
10:09AM 42.0044 -72.4289 265° West 311 358 28,000 540 Climbing Boston Center
10:10AM 41.9919 -72.5936 264° West 351 404 28,000  Level Boston Center
10:11AM 41.9833 -72.7333 265° West 373 429 28,000  Level Boston Center
10:12AM 41.9389 -72.9006 250° West 392 451 28,000  Level Boston Center
10:13AM 41.8633 -73.0256 231° Southwest 412 474 28,000  Level Boston Center
10:14AM 41.7894 -73.1556 233° Southwest 412 474 28,000  Level Boston Center
10:15AM 41.7328 -73.2467 230° Southwest 412 474 28,000  Level Boston Center
10:18AM 41.5583 -73.5353 231° Southwest 394 453 28,000  Level New York Center
10:19AM 41.4867 -73.6514 231° Southwest 399 459 28,000  Level New York Center
10:20AM 41.4194 -73.7672 232° Southwest 405 466 28,000  Level New York Center
10:21AM 41.3456 -73.8856 230° Southwest 410 472 28,000  Level New York Center
10:22AM 41.2758 -73.9983 231° Southwest 410 472 28,000  Level New York Center
10:23AM 41.2039 -74.1161 231° Southwest 415 478 28,000  Level New York Center
10:24AM 41.1319 -74.2256 229° Southwest 415 478 28,000  Level New York Center
10:25AM 41.0619 -74.3375 230° Southwest 410 472 28,000  Level New York Center
10:26AM 40.9939 -74.4522 232° Southwest 405 466 28,000  Level New York Center
10:27AM 40.9239 -74.5581 229° Southwest 400 460 28,000  Level New York Center
10:28AM 40.8758 -74.6844 243° Southwest 392 451 28,000  Level New York Center
10:29AM 40.8300 -74.8133 245° Southwest 386 444 28,000  Level New York Center
10:30AM 40.7714 -74.9414 239° Southwest 391 450 28,000  Level New York Center
10:31AM 40.7128 -75.0639 238° Southwest 396 456 28,000  Level New York Center
10:32AM 40.6539 -75.1886 238° Southwest 396 456 28,000  Level New York Center
10:33AM 40.5972 -75.3108 239° Southwest 396 456 28,000  Level New York Center
10:34AM 40.5361 -75.4350 237° Southwest 396 456 28,000 -660 Level New York Center
10:35AM 40.4792 -75.5542 238° Southwest 396 456 26,800 -1,740 Descending New York Center
10:36AM 40.4222 -75.6756 238° Southwest 396 456 24,500 -2,220 Descending New York Center
10:37AM 40.3672 -75.7914 238° Southwest 390 449 22,400 -2,160 Descending New York Center
10:38AM 40.3036 -75.9122 235° Southwest 379 436 20,200 -1,200 Descending New York Center
10:39AM 40.2511 -76.0169 237° Southwest 374 430 20,000 -180 Descending New York Center
10:40AM 40.2003 -76.1272 239° Southwest 362 417 19,900 -600 Descending New York Center
10:41AM 40.1497 -76.2319 238° Southwest 352 405 18,800 -1,140 Descending New York Center
10:42AM 40.1036 -76.3261 237° Southwest 345 397 17,700 -960 Descending New York Center
10:43AM 40.0500 -76.4439 239° Southwest 340 391 17,000 -360 Descending New York Center
10:44AM 40.0033 -76.5458 239° Southwest 340 391 17,000  Level New York Center
10:45AM 39.9592 -76.6369 238° Southwest 340 391 17,000 -600 Level New York Center
10:46AM 39.9100 -76.7494 240° Southwest 340 391 15,900 -720 Descending New York Center
10:48AM 39.8167 -76.9333 237° Southwest 301 346 15,000 -300 Descending Potomac TRACON
10:49AM 39.7833 -77.0333 247° West 278 320 15,100  Climbing Potomac TRACON
10:50AM 39.8167 -77.1167 298° West 273 314 15,000 -1,020 Descending Potomac TRACON
10:50AM 39.8167 -77.2167 270° West 279 321 13,200 -2,040 Descending Potomac TRACON
10:51AM 39.7667 -77.2667 218° Southwest 283 326 11,100 -1,740 Descending Potomac TRACON
10:52AM 39.7000 -77.3000 201° Southwest 262 302 10,000 -900 Descending Potomac TRACON
10:53AM 39.6167 -77.3333 197° South 276 318 9,300 -1,020 Descending Potomac TRACON
10:54AM 39.5667 -77.3833 218° Southwest 272 313 8,000 -1,200 Descending Potomac TRACON
10:55AM 39.5000 -77.4333 210° Southwest 251 289 7,000 -540 Descending Potomac TRACON
10:56AM 39.4333 -77.4500 191° South 249 287 7,000 -180 Level Potomac TRACON
10:57AM 39.3667 -77.4500 180° South 254 292 6,700 -900 Descending Potomac TRACON
10:58AM 39.3000 -77.4500 180° South 250 288 5,200 -1,380 Descending Potomac TRACON
10:59AM 39.2333 -77.4500 180° South 263 303 4,000 -1,080 Descending Potomac TRACON
11:00AM 39.1667 -77.4500 180° South 234 269 3,100 -480 Descending Potomac TRACON
11:01AM 39.1167 -77.4500 180° South 160 184 3,100 -420 Level Potomac TRACON
11:02AM 39.0667 -77.4500 180° South 173 199 2,300 -900 Descending Potomac TRACON
11:03AM 39.0333 -77.4500 180° South 138 159 1,400 -840 Descending Potomac TRACON
11:04AM 38.9833 -77.4667 195° South 126 145 700 -720 Descending Potomac TRACON
11:06AM 38.9474 -77.4599 180° South  Level Estimated
11:13AM 38.9474 -77.4599 349° North  Level Estimated
11:14AM 38.9474 -77.4599 349° North  Level Estimated
11:15AM 38.9474 -77.4599 349° North  Level Estimated